CheckWX is a tool to help pilots better visualize weather data.  It is not intended as a substitute for an official pre-flight weather briefing.

21:01:22 UTC

20U METAR
Beach Airport
Beach, North Dakota, USA
Current

6 mins ago

K20U 232055Z AUTO 28019KT 9SM CLR M09/M12 A2992 RMK AO2
Observed
Feb-23 @ 20:55 UTC
Wind
  • 280° at 19 KTS
Visibility
9 SM
Flight Rules
VFR
Cloud Levels
  • Clear skies
Temperature
-9°C / 16°F
Dewpoint
-12°C / 10°F
Humidity
79%
Altimeter
29.92" Hg
Pressure
1013.22 hPa
Previous

26 mins ago

K20U 232035Z AUTO 28019KT 9SM CLR M09/M12 A2991 RMK AO2
Observed
Feb-23 @ 20:35 UTC
Wind
  • 280° at 19 KTS
Visibility
9 SM
Flight Rules
VFR
Cloud Levels
  • Clear skies
Temperature
-9°C / 16°F
Dewpoint
-12°C / 10°F
Humidity
79%
Altimeter
29.91" Hg
Pressure
1012.92 hPa
Previous

46 mins ago

K20U 232015Z AUTO 30013KT 10SM CLR M09/M12 A2992 RMK AO2
Observed
Feb-23 @ 20:15 UTC
Wind
  • 300° at 13 KTS
Visibility
10 SM
Flight Rules
VFR
Cloud Levels
  • Clear skies
Temperature
-9°C / 16°F
Dewpoint
-12°C / 10°F
Humidity
79%
Altimeter
29.92" Hg
Pressure
1013.22 hPa